sensor_id;sensor_type;location;lat;lon;timestamp;pressure;altitude;pressure_sealevel;temperature;humidity
73245;BME280;61460;41.158;-73.238;2023-02-15T00:01:48;102046.96;;;25.22;33.42
73245;BME280;61460;41.158;-73.238;2023-02-15T00:04:20;102046.70;;;25.14;33.54
73245;BME280;61460;41.158;-73.238;2023-02-15T00:06:49;102045.65;;;25.13;33.62
73245;BME280;61460;41.158;-73.238;2023-02-15T00:09:19;102047.57;;;25.23;33.66
73245;BME280;61460;41.158;-73.238;2023-02-15T00:11:50;102045.90;;;25.30;33.66
73245;BME280;61460;41.158;-73.238;2023-02-15T00:14:23;102045.03;;;25.23;33.80
73245;BME280;61460;41.158;-73.238;2023-02-15T00:16:53;102049.51;;;25.37;34.09
73245;BME280;61460;41.158;-73.238;2023-02-15T00:19:22;102054.17;;;25.23;34.11
73245;BME280;61460;41.158;-73.238;2023-02-15T00:21:53;102061.31;;;25.24;34.37
73245;BME280;61460;41.158;-73.238;2023-02-15T00:24:24;102065.54;;;25.25;34.35
73245;BME280;61460;41.158;-73.238;2023-02-15T00:26:54;102071.80;;;25.27;34.30
73245;BME280;61460;41.158;-73.238;2023-02-15T00:29:25;102074.63;;;25.26;34.38
73245;BME280;61460;41.158;-73.238;2023-02-15T00:31:55;102081.85;;;25.32;34.33
73245;BME280;61460;41.158;-73.238;2023-02-15T00:34:27;102078.22;;;25.21;34.13
73245;BME280;61460;41.158;-73.238;2023-02-15T00:36:56;102076.15;;;25.29;34.41
73245;BME280;61460;41.158;-73.238;2023-02-15T00:39:26;102067.97;;;24.92;34.88
73245;BME280;61460;41.158;-73.238;2023-02-15T00:41:57;102071.63;;;25.30;34.45
73245;BME280;61460;41.158;-73.238;2023-02-15T00:44:27;102073.98;;;25.35;34.38
73245;BME280;61460;41.158;-73.238;2023-02-15T00:46:58;102076.77;;;25.42;34.52
73245;BME280;61460;41.158;-73.238;2023-02-15T00:49:28;102083.24;;;25.43;34.60
73245;BME280;61460;41.158;-73.238;2023-02-15T00:51:59;102089.78;;;25.45;34.56
73245;BME280;61460;41.158;-73.238;2023-02-15T00:54:29;102091.39;;;25.45;34.55
73245;BME280;61460;41.158;-73.238;2023-02-15T00:57:00;102093.44;;;25.46;34.57
73245;BME280;61460;41.158;-73.238;2023-02-15T00:59:30;102099.94;;;25.42;34.76
73245;BME280;61460;41.158;-73.238;2023-02-15T01:02:00;102109.06;;;25.38;34.84
73245;BME280;61460;41.158;-73.238;2023-02-15T01:04:31;102108.48;;;25.42;34.75
73245;BME280;61460;41.158;-73.238;2023-02-15T01:07:01;102104.13;;;25.44;34.86
73245;BME280;61460;41.158;-73.238;2023-02-15T01:09:31;102104.96;;;25.32;35.05
73245;BME280;61460;41.158;-73.238;2023-02-15T01:12:02;102118.35;;;25.22;34.89
73245;BME280;61460;41.158;-73.238;2023-02-15T01:14:32;102125.33;;;25.26;34.47
73245;BME280;61460;41.158;-73.238;2023-02-15T01:17:03;102126.53;;;25.28;34.52
73245;BME280;61460;41.158;-73.238;2023-02-15T01:19:36;102122.59;;;25.35;34.26
73245;BME280;61460;41.158;-73.238;2023-02-15T01:22:03;102122.24;;;25.40;34.22
73245;BME280;61460;41.158;-73.238;2023-02-15T01:24:34;102119.30;;;25.34;34.49
73245;BME280;61460;41.158;-73.238;2023-02-15T01:27:04;102126.95;;;25.30;34.60
73245;BME280;61460;41.158;-73.238;2023-02-15T01:29:35;102132.12;;;25.38;34.68
73245;BME280;61460;41.158;-73.238;2023-02-15T01:32:06;102139.93;;;25.48;34.62
73245;BME280;61460;41.158;-73.238;2023-02-15T01:34:36;102133.87;;;25.46;34.74
73245;BME280;61460;41.158;-73.238;2023-02-15T01:37:07;102142.16;;;25.47;34.69
73245;BME280;61460;41.158;-73.238;2023-02-15T01:39:37;102141.21;;;25.46;34.70
73245;BME280;61460;41.158;-73.238;2023-02-15T01:42:10;102139.66;;;25.47;34.82
73245;BME280;61460;41.158;-73.238;2023-02-15T01:44:47;102158.18;;;25.40;35.04
73245;BME280;61460;41.158;-73.238;2023-02-15T01:47:09;102152.90;;;25.46;34.86
73245;BME280;61460;41.158;-73.238;2023-02-15T01:49:39;102159.54;;;25.50;34.21
73245;BME280;61460;41.158;-73.238;2023-02-15T01:52:10;102168.72;;;25.21;34.14
73245;BME280;61460;41.158;-73.238;2023-02-15T01:54:41;102168.68;;;25.31;34.13
73245;BME280;61460;41.158;-73.238;2023-02-15T01:57:12;102161.70;;;25.36;34.20
73245;BME280;61460;41.158;-73.238;2023-02-15T01:59:42;102166.88;;;25.41;34.23
73245;BME280;61460;41.158;-73.238;2023-02-15T02:02:13;102173.98;;;25.34;34.29
73245;BME280;61460;41.158;-73.238;2023-02-15T02:04:47;102175.23;;;25.32;34.43
73245;BME280;61460;41.158;-73.238;2023-02-15T02:07:13;102177.47;;;25.30;34.55
73245;BME280;61460;41.158;-73.238;2023-02-15T02:09:43;102173.25;;;25.40;34.50
73245;BME280;61460;41.158;-73.238;2023-02-15T02:12:13;102164.72;;;25.45;34.43
73245;BME280;61460;41.158;-73.238;2023-02-15T02:14:45;102163.52;;;25.43;34.58
73245;BME280;61460;41.158;-73.238;2023-02-15T02:17:18;102154.13;;;25.45;34.61
73245;BME280;61460;41.158;-73.238;2023-02-15T02:20:00;102161.01;;;25.44;34.72
73245;BME280;61460;41.158;-73.238;2023-02-15T02:25:01;102168.84;;;25.39;34.92
73245;BME280;61460;41.158;-73.238;2023-02-15T02:27:23;102171.21;;;25.41;35.01
73245;BME280;61460;41.158;-73.238;2023-02-15T02:34:52;102167.06;;;25.25;35.00
73245;BME280;61460;41.158;-73.238;2023-02-15T02:37:23;102171.61;;;25.13;35.33
73245;BME280;61460;41.158;-73.238;2023-02-15T02:39:52;102172.12;;;25.13;35.43
73245;BME280;61460;41.158;-73.238;2023-02-15T02:42:25;102176.15;;;25.10;35.43
73245;BME280;61460;41.158;-73.238;2023-02-15T02:44:53;102175.36;;;25.21;35.28
73245;BME280;61460;41.158;-73.238;2023-02-15T02:47:23;102167.19;;;25.33;35.07
73245;BME280;61460;41.158;-73.238;2023-02-15T02:49:58;102164.34;;;25.28;35.48
73245;BME280;61460;41.158;-73.238;2023-02-15T02:54:52;102157.11;;;25.39;34.93
73245;BME280;61460;41.158;-73.238;2023-02-15T02:57:23;102160.52;;;25.28;35.51
73245;BME280;61460;41.158;-73.238;2023-02-15T02:59:53;102158.99;;;25.26;35.35
73245;BME280;61460;41.158;-73.238;2023-02-15T03:02:27;102154.68;;;25.25;35.43
73245;BME280;61460;41.158;-73.238;2023-02-15T03:04:57;102160.03;;;25.02;35.62
73245;BME280;61460;41.158;-73.238;2023-02-15T03:07:26;102159.04;;;24.96;36.26
73245;BME280;61460;41.158;-73.238;2023-02-15T03:09:57;102152.18;;;25.03;36.05
73245;BME280;61460;41.158;-73.238;2023-02-15T03:12:30;102144.42;;;24.81;36.44
73245;BME280;61460;41.158;-73.238;2023-02-15T03:15:00;102142.70;;;24.75;36.40
73245;BME280;61460;41.158;-73.238;2023-02-15T03:17:30;102146.76;;;24.67;36.55
73245;BME280;61460;41.158;-73.238;2023-02-15T03:20:00;102153.45;;;23.87;37.46
73245;BME280;61460;41.158;-73.238;2023-02-15T03:22:30;102161.59;;;24.32;36.42
73245;BME280;61460;41.158;-73.238;2023-02-15T03:25:02;102147.88;;;24.27;35.87
73245;BME280;61460;41.158;-73.238;2023-02-15T03:27:32;102141.12;;;24.49;34.88
73245;BME280;61460;41.158;-73.238;2023-02-15T03:30:00;102135.47;;;24.45;35.90
73245;BME280;61460;41.158;-73.238;2023-02-15T03:32:32;102133.15;;;24.45;35.73
73245;BME280;61460;41.158;-73.238;2023-02-15T03:35:00;102138.24;;;24.47;36.41
73245;BME280;61460;41.158;-73.238;2023-02-15T03:37:35;102142.56;;;24.44;36.11
73245;BME280;61460;41.158;-73.238;2023-02-15T03:40:05;102136.50;;;24.47;36.24
73245;BME280;61460;41.158;-73.238;2023-02-15T03:42:33;102125.47;;;24.55;35.89
73245;BME280;61460;41.158;-73.238;2023-02-15T03:45:05;102118.52;;;24.53;35.80
73245;BME280;61460;41.158;-73.238;2023-02-15T03:47:36;102113.55;;;24.39;36.01
73245;BME280;61460;41.158;-73.238;2023-02-15T03:50:07;102120.44;;;24.40;36.03
73245;BME280;61460;41.158;-73.238;2023-02-15T03:52:35;102127.35;;;24.49;35.97
73245;BME280;61460;41.158;-73.238;2023-02-15T03:55:04;102124.41;;;24.52;35.89
73245;BME280;61460;41.158;-73.238;2023-02-15T03:57:35;102136.58;;;24.49;35.88
73245;BME280;61460;41.158;-73.238;2023-02-15T04:00:11;102148.32;;;24.48;35.90
73245;BME280;61460;41.158;-73.238;2023-02-15T04:02:39;102146.64;;;24.38;36.18
73245;BME280;61460;41.158;-73.238;2023-02-15T04:05:06;102154.71;;;24.18;36.20
73245;BME280;61460;41.158;-73.238;2023-02-15T04:07:37;102145.16;;;24.26;35.77
73245;BME280;61460;41.158;-73.238;2023-02-15T04:10:07;102145.91;;;24.23;35.98
73245;BME280;61460;41.158;-73.238;2023-02-15T04:12:38;102142.83;;;24.39;35.67
73245;BME280;61460;41.158;-73.238;2023-02-15T04:15:12;102143.67;;;24.27;35.79
73245;BME280;61460;41.158;-73.238;2023-02-15T04:17:39;102135.73;;;24.30;35.65
73245;BME280;61460;41.158;-73.238;2023-02-15T04:20:10;102140.00;;;24.23;35.80
73245;BME280;61460;41.158;-73.238;2023-02-15T04:22:40;102135.73;;;24.09;35.99
73245;BME280;61460;41.158;-73.238;2023-02-15T04:25:11;102136.49;;;24.17;36.03
73245;BME280;61460;41.158;-73.238;2023-02-15T04:27:43;102136.62;;;24.12;36.04
73245;BME280;61460;41.158;-73.238;2023-02-15T04:30:13;102134.11;;;24.15;36.15
73245;BME280;61460;41.158;-73.238;2023-02-15T04:32:42;102131.26;;;24.11;36.30
73245;BME280;61460;41.158;-73.238;2023-02-15T04:35:13;102126.07;;;24.20;35.06
73245;BME280;61460;41.158;-73.238;2023-02-15T04:37:44;102125.11;;;24.27;35.33
73245;BME280;61460;41.158;-73.238;2023-02-15T04:40:14;102128.89;;;24.14;35.85
73245;BME280;61460;41.158;-73.238;2023-02-15T04:42:43;102110.95;;;24.19;35.72
73245;BME280;61460;41.158;-73.238;2023-02-15T04:45:14;102123.04;;;24.24;35.54
73245;BME280;61460;41.158;-73.238;2023-02-15T04:47:44;102138.84;;;24.25;35.60
73245;BME280;61460;41.158;-73.238;2023-02-15T04:50:15;102131.04;;;24.25;35.59
73245;BME280;61460;41.158;-73.238;2023-02-15T04:52:45;102129.83;;;24.23;35.80
73245;BME280;61460;41.158;-73.238;2023-02-15T04:55:16;102115.19;;;24.15;36.06
73245;BME280;61460;41.158;-73.238;2023-02-15T04:57:46;102125.73;;;24.00;35.49
73245;BME280;61460;41.158;-73.238;2023-02-15T05:00:17;102139.29;;;24.33;35.18
73245;BME280;61460;41.158;-73.238;2023-02-15T05:02:47;102144.45;;;24.19;35.60
73245;BME280;61460;41.158;-73.238;2023-02-15T05:05:18;102146.04;;;24.25;35.27
73245;BME280;61460;41.158;-73.238;2023-02-15T05:07:48;102145.00;;;24.27;35.16
73245;BME280;61460;41.158;-73.238;2023-02-15T05:10:19;102135.24;;;24.26;35.08
73245;BME280;61460;41.158;-73.238;2023-02-15T05:12:49;102126.43;;;23.81;36.06
73245;BME280;61460;41.158;-73.238;2023-02-15T05:15:19;102117.52;;;24.00;35.09
73245;BME280;61460;41.158;-73.238;2023-02-15T05:17:50;102126.93;;;24.09;34.23
73245;BME280;61460;41.158;-73.238;2023-02-15T05:20:20;102114.08;;;24.03;34.35
73245;BME280;61460;41.158;-73.238;2023-02-15T05:22:53;102113.29;;;24.09;33.92
73245;BME280;61460;41.158;-73.238;2023-02-15T05:25:21;102101.72;;;24.10;34.09
73245;BME280;61460;41.158;-73.238;2023-02-15T05:27:51;102108.84;;;24.09;34.00
73245;BME280;61460;41.158;-73.238;2023-02-15T05:30:22;102109.89;;;23.96;33.46
73245;BME280;61460;41.158;-73.238;2023-02-15T05:32:52;102110.43;;;23.94;32.68
73245;BME280;61460;41.158;-73.238;2023-02-15T05:35:23;102109.20;;;23.97;32.39
73245;BME280;61460;41.158;-73.238;2023-02-15T05:37:53;102124.45;;;23.98;32.50
73245;BME280;61460;41.158;-73.238;2023-02-15T05:40:23;102122.40;;;23.94;32.85
73245;BME280;61460;41.158;-73.238;2023-02-15T05:42:53;102118.76;;;23.95;32.78
73245;BME280;61460;41.158;-73.238;2023-02-15T05:45:24;102125.41;;;23.95;33.08
73245;BME280;61460;41.158;-73.238;2023-02-15T05:47:54;102130.55;;;23.92;33.26
73245;BME280;61460;41.158;-73.238;2023-02-15T05:50:25;102122.99;;;23.76;34.39
73245;BME280;61460;41.158;-73.238;2023-02-15T05:52:55;102123.71;;;23.42;35.48
73245;BME280;61460;41.158;-73.238;2023-02-15T05:55:25;102113.64;;;23.56;34.29
73245;BME280;61460;41.158;-73.238;2023-02-15T05:57:55;102103.86;;;23.30;33.46
73245;BME280;61460;41.158;-73.238;2023-02-15T06:00:26;102111.05;;;23.46;32.61
73245;BME280;61460;41.158;-73.238;2023-02-15T06:02:56;102116.95;;;23.48;32.68
73245;BME280;61460;41.158;-73.238;2023-02-15T06:05:26;102119.66;;;23.52;32.86
73245;BME280;61460;41.158;-73.238;2023-02-15T06:07:57;102123.10;;;23.56;33.59
73245;BME280;61460;41.158;-73.238;2023-02-15T06:10:28;102126.28;;;23.56;34.20
73245;BME280;61460;41.158;-73.238;2023-02-15T06:12:58;102131.60;;;23.62;33.82
73245;BME280;61460;41.158;-73.238;2023-02-15T06:15:29;102129.40;;;23.61;34.46
73245;BME280;61460;41.158;-73.238;2023-02-15T06:17:59;102121.17;;;23.58;34.80
73245;BME280;61460;41.158;-73.238;2023-02-15T06:20:30;102127.27;;;23.62;34.76
73245;BME280;61460;41.158;-73.238;2023-02-15T06:23:00;102128.55;;;23.27;35.84
73245;BME280;61460;41.158;-73.238;2023-02-15T06:25:30;102125.18;;;23.40;34.13
73245;BME280;61460;41.158;-73.238;2023-02-15T06:28:01;102135.00;;;23.28;33.45
73245;BME280;61460;41.158;-73.238;2023-02-15T06:30:31;102142.43;;;23.38;33.00
73245;BME280;61460;41.158;-73.238;2023-02-15T06:33:02;102132.75;;;23.44;32.61
73245;BME280;61460;41.158;-73.238;2023-02-15T06:35:32;102126.38;;;23.52;32.81
73245;BME280;61460;41.158;-73.238;2023-02-15T06:38:03;102130.75;;;23.62;32.98
73245;BME280;61460;41.158;-73.238;2023-02-15T06:40:33;102147.96;;;23.57;33.47
73245;BME280;61460;41.158;-73.238;2023-02-15T06:43:03;102156.42;;;23.57;33.69
73245;BME280;61460;41.158;-73.238;2023-02-15T06:45:33;102151.93;;;23.63;33.77
73245;BME280;61460;41.158;-73.238;2023-02-15T06:48:04;102160.48;;;23.66;34.08
73245;BME280;61460;41.158;-73.238;2023-02-15T06:50:34;102154.51;;;23.61;34.33
73245;BME280;61460;41.158;-73.238;2023-02-15T06:53:04;102154.17;;;23.12;35.45
73245;BME280;61460;41.158;-73.238;2023-02-15T06:55:35;102153.43;;;23.38;34.32
73245;BME280;61460;41.158;-73.238;2023-02-15T06:58:05;102137.47;;;23.43;33.81
73245;BME280;61460;41.158;-73.238;2023-02-15T07:00:36;102143.01;;;23.53;32.52
73245;BME280;61460;41.158;-73.238;2023-02-15T07:03:06;102152.13;;;23.42;32.63
73245;BME280;61460;41.158;-73.238;2023-02-15T07:05:37;102157.08;;;23.41;32.78
73245;BME280;61460;41.158;-73.238;2023-02-15T07:08:07;102141.84;;;23.50;33.47
73245;BME280;61460;41.158;-73.238;2023-02-15T07:10:37;102145.08;;;23.50;33.57
73245;BME280;61460;41.158;-73.238;2023-02-15T07:13:07;102152.06;;;23.55;33.53
73245;BME280;61460;41.158;-73.238;2023-02-15T07:15:38;102148.39;;;23.57;33.53
73245;BME280;61460;41.158;-73.238;2023-02-15T07:18:08;102145.18;;;23.51;33.78
73245;BME280;61460;41.158;-73.238;2023-02-15T07:20:39;102143.11;;;23.42;34.16
73245;BME280;61460;41.158;-73.238;2023-02-15T07:23:09;102144.95;;;23.33;34.38
73245;BME280;61460;41.158;-73.238;2023-02-15T07:25:40;102144.78;;;23.52;32.95
73245;BME280;61460;41.158;-73.238;2023-02-15T07:28:10;102137.25;;;23.47;32.31
73245;BME280;61460;41.158;-73.238;2023-02-15T07:30:40;102133.16;;;23.49;32.55
73245;BME280;61460;41.158;-73.238;2023-02-15T07:33:11;102138.28;;;23.50;32.52
73245;BME280;61460;41.158;-73.238;2023-02-15T07:35:46;102129.56;;;23.42;33.20
73245;BME280;61460;41.158;-73.238;2023-02-15T07:38:12;102131.07;;;23.54;33.22
73245;BME280;61460;41.158;-73.238;2023-02-15T07:40:42;102122.60;;;23.42;33.42
73245;BME280;61460;41.158;-73.238;2023-02-15T07:43:13;102116.41;;;23.20;34.51
73245;BME280;61460;41.158;-73.238;2023-02-15T07:45:43;102104.95;;;23.21;33.59
73245;BME280;61460;41.158;-73.238;2023-02-15T07:48:13;102101.83;;;23.15;32.75
73245;BME280;61460;41.158;-73.238;2023-02-15T07:50:44;102096.86;;;23.13;32.31
73245;BME280;61460;41.158;-73.238;2023-02-15T07:53:15;102099.41;;;23.30;32.35
73245;BME280;61460;41.158;-73.238;2023-02-15T07:55:45;102097.06;;;23.37;31.96
73245;BME280;61460;41.158;-73.238;2023-02-15T07:58:15;102094.24;;;23.20;33.05
73245;BME280;61460;41.158;-73.238;2023-02-15T08:00:45;102091.95;;;23.00;34.42
73245;BME280;61460;41.158;-73.238;2023-02-15T08:03:16;102089.07;;;23.06;33.10
73245;BME280;61460;41.158;-73.238;2023-02-15T08:05:47;102101.80;;;23.19;33.02
73245;BME280;61460;41.158;-73.238;2023-02-15T08:08:17;102090.98;;;23.29;32.80
73245;BME280;61460;41.158;-73.238;2023-02-15T08:10:48;102080.32;;;23.25;33.63
73245;BME280;61460;41.158;-73.238;2023-02-15T08:13:18;102087.28;;;23.20;33.70
73245;BME280;61460;41.158;-73.238;2023-02-15T08:15:49;102099.45;;;23.23;33.73
73245;BME280;61460;41.158;-73.238;2023-02-15T08:18:19;102101.32;;;23.30;33.07
73245;BME280;61460;41.158;-73.238;2023-02-15T08:20:49;102085.41;;;23.14;32.88
73245;BME280;61460;41.158;-73.238;2023-02-15T08:23:20;102081.85;;;23.05;32.89
73245;BME280;61460;41.158;-73.238;2023-02-15T08:25:50;102088.55;;;23.17;32.77
73245;BME280;61460;41.158;-73.238;2023-02-15T08:28:21;102093.95;;;23.22;32.28
73245;BME280;61460;41.158;-73.238;2023-02-15T08:30:51;102101.84;;;22.89;34.46
73245;BME280;61460;41.158;-73.238;2023-02-15T08:33:21;102091.85;;;23.04;33.14
73245;BME280;61460;41.158;-73.238;2023-02-15T08:35:52;102080.27;;;23.05;32.92
73245;BME280;61460;41.158;-73.238;2023-02-15T08:38:22;102079.06;;;23.12;32.87
73245;BME280;61460;41.158;-73.238;2023-02-15T08:40:53;102084.03;;;23.21;33.39
73245;BME280;61460;41.158;-73.238;2023-02-15T08:43:24;102087.40;;;23.17;33.68
73245;BME280;61460;41.158;-73.238;2023-02-15T08:45:55;102105.42;;;23.14;33.05
73245;BME280;61460;41.158;-73.238;2023-02-15T08:48:25;102109.84;;;23.14;33.52
73245;BME280;61460;41.158;-73.238;2023-02-15T08:50:56;102114.58;;;23.07;33.41
73245;BME280;61460;41.158;-73.238;2023-02-15T08:53:26;102124.64;;;23.00;33.06
73245;BME280;61460;41.158;-73.238;2023-02-15T08:55:57;102136.21;;;23.03;32.54
73245;BME280;61460;41.158;-73.238;2023-02-15T08:58:28;102138.23;;;23.08;32.56
73245;BME280;61460;41.158;-73.238;2023-02-15T09:00:58;102147.04;;;23.08;32.55
73245;BME280;61460;41.158;-73.238;2023-02-15T09:03:29;102149.20;;;23.10;32.76
73245;BME280;61460;41.158;-73.238;2023-02-15T09:06:00;102148.11;;;23.09;32.69
73245;BME280;61460;41.158;-73.238;2023-02-15T09:08:30;102154.78;;;23.22;32.80
73245;BME280;61460;41.158;-73.238;2023-02-15T09:11:07;102143.37;;;23.12;32.97
73245;BME280;61460;41.158;-73.238;2023-02-15T09:13:32;102130.34;;;23.10;33.21
73245;BME280;61460;41.158;-73.238;2023-02-15T09:16:03;102137.38;;;22.95;34.37
73245;BME280;61460;41.158;-73.238;2023-02-15T09:18:35;102140.68;;;23.01;32.78
73245;BME280;61460;41.158;-73.238;2023-02-15T09:21:07;102149.09;;;23.03;32.05
73245;BME280;61460;41.158;-73.238;2023-02-15T09:23:34;102160.30;;;22.92;32.47
73245;BME280;61460;41.158;-73.238;2023-02-15T09:26:06;102164.41;;;23.06;32.63
73245;BME280;61460;41.158;-73.238;2023-02-15T09:28:35;102164.69;;;23.00;33.06
73245;BME280;61460;41.158;-73.238;2023-02-15T09:31:07;102162.51;;;23.06;33.23
73245;BME280;61460;41.158;-73.238;2023-02-15T09:33:36;102163.39;;;22.63;34.69
73245;BME280;61460;41.158;-73.238;2023-02-15T09:36:14;102159.66;;;22.75;33.63
73245;BME280;61460;41.158;-73.238;2023-02-15T09:38:36;102165.85;;;22.83;33.52
73245;BME280;61460;41.158;-73.238;2023-02-15T09:41:20;102156.80;;;22.87;33.40
73245;BME280;61460;41.158;-73.238;2023-02-15T09:43:40;102159.00;;;22.94;34.20
73245;BME280;61460;41.158;-73.238;2023-02-15T09:46:23;102150.38;;;22.81;33.99
73245;BME280;61460;41.158;-73.238;2023-02-15T09:48:40;102154.80;;;22.79;33.03
73245;BME280;61460;41.158;-73.238;2023-02-15T09:53:53;102161.71;;;22.78;32.88
73245;BME280;61460;41.158;-73.238;2023-02-15T09:56:17;102149.42;;;22.49;34.82
73245;BME280;61460;41.158;-73.238;2023-02-15T09:58:47;102139.92;;;22.67;33.41
73245;BME280;61460;41.158;-73.238;2023-02-15T10:01:19;102139.45;;;22.67;33.54
73245;BME280;61460;41.158;-73.238;2023-02-15T10:03:52;102121.56;;;22.72;33.56
73245;BME280;61460;41.158;-73.238;2023-02-15T10:06:23;102126.93;;;22.80;33.33
73245;BME280;61460;41.158;-73.238;2023-02-15T10:08:53;102127.81;;;22.69;33.81
73245;BME280;61460;41.158;-73.238;2023-02-15T10:11:18;102101.80;;;22.73;34.25
73245;BME280;61460;41.158;-73.238;2023-02-15T10:13:50;102093.60;;;22.61;34.32
73245;BME280;61460;41.158;-73.238;2023-02-15T10:16:22;102082.34;;;22.75;33.58
73245;BME280;61460;41.158;-73.238;2023-02-15T10:18:55;102074.66;;;22.62;33.79
73245;BME280;61460;41.158;-73.238;2023-02-15T10:21:27;102079.26;;;22.66;33.98
73245;BME280;61460;41.158;-73.238;2023-02-15T10:24:00;102073.72;;;22.66;33.54
73245;BME280;61460;41.158;-73.238;2023-02-15T10:26:19;102082.26;;;22.66;33.83
73245;BME280;61460;41.158;-73.238;2023-02-15T10:28:50;102082.16;;;22.65;33.76
73245;BME280;61460;41.158;-73.238;2023-02-15T10:31:24;102053.03;;;22.66;33.96
73245;BME280;61460;41.158;-73.238;2023-02-15T10:33:58;102073.87;;;22.68;34.19
73245;BME280;61460;41.158;-73.238;2023-02-15T10:36:30;102098.28;;;22.67;34.12
73245;BME280;61460;41.158;-73.238;2023-02-15T10:38:56;102108.88;;;22.62;34.29
73245;BME280;61460;41.158;-73.238;2023-02-15T10:41:31;102106.42;;;22.42;34.73
73245;BME280;61460;41.158;-73.238;2023-02-15T10:44:04;102096.14;;;22.51;34.27
73245;BME280;61460;41.158;-73.238;2023-02-15T10:46:34;102098.43;;;22.44;34.29
73245;BME280;61460;41.158;-73.238;2023-02-15T10:49:03;102107.59;;;22.55;34.29
73245;BME280;61460;41.158;-73.238;2023-02-15T10:51:29;102110.01;;;22.57;34.19
73245;BME280;61460;41.158;-73.238;2023-02-15T10:54:05;102107.59;;;22.58;34.21
73245;BME280;61460;41.158;-73.238;2023-02-15T10:56:25;102108.33;;;22.60;34.32
73245;BME280;61460;41.158;-73.238;2023-02-15T10:59:09;102110.74;;;22.53;34.32
73245;BME280;61460;41.158;-73.238;2023-02-15T11:01:29;102112.07;;;22.60;34.43
73245;BME280;61460;41.158;-73.238;2023-02-15T11:06:26;102109.28;;;22.57;34.71
73245;BME280;61460;41.158;-73.238;2023-02-15T11:09:00;102111.46;;;22.36;34.91
73245;BME280;61460;41.158;-73.238;2023-02-15T11:11:28;102091.60;;;22.48;34.76
73245;BME280;61460;41.158;-73.238;2023-02-15T11:13:58;102110.63;;;22.45;34.66
73245;BME280;61460;41.158;-73.238;2023-02-15T11:16:29;102128.43;;;22.45;34.79
73245;BME280;61460;41.158;-73.238;2023-02-15T11:19:01;102123.36;;;22.46;34.61
73245;BME280;61460;41.158;-73.238;2023-02-15T11:21:30;102128.34;;;22.58;34.65
73245;BME280;61460;41.158;-73.238;2023-02-15T11:23:59;102125.51;;;22.56;34.68
73245;BME280;61460;41.158;-73.238;2023-02-15T11:26:33;102118.92;;;22.44;36.15
73245;BME280;61460;41.158;-73.238;2023-02-15T11:29:01;102115.33;;;22.53;35.30
73245;BME280;61460;41.158;-73.238;2023-02-15T11:31:36;102116.70;;;22.48;35.33
73245;BME280;61460;41.158;-73.238;2023-02-15T11:34:03;102114.52;;;22.43;35.42
73245;BME280;61460;41.158;-73.238;2023-02-15T11:36:34;102104.80;;;22.27;35.22
73245;BME280;61460;41.158;-73.238;2023-02-15T11:39:05;102091.40;;;22.30;35.09
73245;BME280;61460;41.158;-73.238;2023-02-15T11:41:34;102080.67;;;22.32;34.61
73245;BME280;61460;41.158;-73.238;2023-02-15T11:44:05;102064.53;;;22.34;34.52
73245;BME280;61460;41.158;-73.238;2023-02-15T11:46:32;102049.22;;;22.35;34.55
73245;BME280;61460;41.158;-73.238;2023-02-15T11:49:07;102030.51;;;22.30;34.34
73245;BME280;61460;41.158;-73.238;2023-02-15T11:51:35;102027.75;;;22.35;34.38
73245;BME280;61460;41.158;-73.238;2023-02-15T11:54:05;102037.45;;;22.35;34.31
73245;BME280;61460;41.158;-73.238;2023-02-15T11:56:35;102052.89;;;22.35;35.25
73245;BME280;61460;41.158;-73.238;2023-02-15T11:59:10;102066.08;;;22.24;36.36
73245;BME280;61460;41.158;-73.238;2023-02-15T12:01:39;102066.77;;;22.22;36.05
73245;BME280;61460;41.158;-73.238;2023-02-15T12:04:15;102079.09;;;22.26;35.76
73245;BME280;61460;41.158;-73.238;2023-02-15T12:06:44;102098.26;;;22.25;36.16
73245;BME280;61460;41.158;-73.238;2023-02-15T12:09:17;102087.87;;;22.26;35.82
73245;BME280;61460;41.158;-73.238;2023-02-15T12:11:40;102091.34;;;22.17;37.39
73245;BME280;61460;41.158;-73.238;2023-02-15T12:14:12;102095.77;;;22.30;37.58
73245;BME280;61460;41.158;-73.238;2023-02-15T12:16:43;102082.37;;;22.28;37.85
73245;BME280;61460;41.158;-73.238;2023-02-15T12:19:23;102079.00;;;22.22;37.60
73245;BME280;61460;41.158;-73.238;2023-02-15T12:21:42;102075.65;;;22.30;37.27
73245;BME280;61460;41.158;-73.238;2023-02-15T12:24:17;102069.25;;;22.23;37.46
73245;BME280;61460;41.158;-73.238;2023-02-15T12:26:44;102061.47;;;22.20;36.98
73245;BME280;61460;41.158;-73.238;2023-02-15T12:29:16;102061.80;;;22.19;36.53
73245;BME280;61460;41.158;-73.238;2023-02-15T12:31:46;102069.30;;;22.19;35.98
73245;BME280;61460;41.158;-73.238;2023-02-15T12:34:21;102062.88;;;22.23;35.70
73245;BME280;61460;41.158;-73.238;2023-02-15T12:36:49;102058.28;;;22.24;36.23
73245;BME280;61460;41.158;-73.238;2023-02-15T12:39:20;102056.79;;;22.25;35.97
73245;BME280;61460;41.158;-73.238;2023-02-15T12:44:19;102056.44;;;22.24;36.26
73245;BME280;61460;41.158;-73.238;2023-02-15T12:46:55;102063.82;;;22.56;35.79
73245;BME280;61460;41.158;-73.238;2023-02-15T12:49:20;102061.96;;;22.59;35.90
73245;BME280;61460;41.158;-73.238;2023-02-15T12:51:51;102072.61;;;22.34;36.06
73245;BME280;61460;41.158;-73.238;2023-02-15T12:54:30;102077.87;;;22.37;35.55
73245;BME280;61460;41.158;-73.238;2023-02-15T12:56:51;102080.00;;;22.41;35.40
73245;BME280;61460;41.158;-73.238;2023-02-15T12:59:22;102072.18;;;22.40;35.20
73245;BME280;61460;41.158;-73.238;2023-02-15T13:01:53;102069.15;;;22.45;35.06
73245;BME280;61460;41.158;-73.238;2023-02-15T13:04:25;102065.09;;;22.33;36.39